< < Back
Terminal Aerodrome Forecast


Current Version              Previous Versions:   1  2  3  4  5  6  7  8  9  

Terminal Aerodrome Forecast

920
FTUS42 KCHS 231730
TAFSAV
TAF
KSAV 231730Z 2318/2418 11013G19KT P6SM SCT040
     FM240100 08006KT P6SM FEW030
     FM241400 12012KT P6SM SCT030=

Latest METAR

068
SAUS80 KWBC 240700 CCA
MTRSAV
METAR KSAV 240653Z AUTO 09005KT 10SM SCT060 22/16 A3030 RMK AO2 SLP258
T02170161 TSNO $


USA.gov is the U.S. government's official web portal to all federal, state and local government web resources and services.